Weather observations for the past three days for
Marion / Wytheville
Metric (Imperial)
Date Time (edt) Wind (kph) Vis. (km) Weather Sky Cond. Temperature (ºC) Relative Humidity Wind Chill (°C) Heat Index (°C) Pressure Precipitation (cm)
Air Dwpt 6 hour altimeter (cm) sea level (mb) 1 hr 3 hr 6 hr
Max. Min.
04 04:15 Calm 16.09 Mostly Cloudy BKN120 1.8 -0.3 86% 76.35 0.0
04 03:55 Calm 16.09 Mostly Cloudy BKN120 2.1 -0.5 83% 76.33 0.0
04 03:35 Calm 16.09 Partly Cloudy SCT110 2 -0.5 84% 76.35 0.0
04 03:15 Calm 16.09 Mostly Cloudy BKN110 2.6 -0.6 80% 76.38 0.0
04 02:55 Calm 16.09 Overcast OVC110 2.7 -0.8 78% 76.38 0.0
04 02:35 Calm 16.09 Mostly Cloudy BKN120 2.7 -0.9 77% 76.38 0.0
04 02:15 SW 6 16.09 Fair CLR 3 -1.1 75% 76.38 0.0
04 01:55 Calm 16.09 Partly Cloudy SCT110 3.6 -1.2 11.1 2.6 71% 76.4 0.0
04 01:35 SW 6 16.09 Partly Cloudy SCT110 3.7 -1.1 71% 76.4 0.0
04 01:15 W 7 16.09 Fair CLR 3.4 -1.1 73% 2 76.38 0.0
04 00:55 W 7 16.09 Fair CLR 3.3 -1 74% 2 76.38 0.0
04 00:35 W 7 16.09 Fair CLR 2.6 -1.1 77% 1 76.38 0.0
04 00:15 W 6 16.09 Fair CLR 4.3 -1.8 65% 76.38 0.0
03 23:55 Calm 16.09 Fair CLR 4.2 -1.6 66% 76.38 0.0
03 23:35 Calm 16.09 Fair CLR 4.8 -2 62% 76.38 0.0
03 23:15 Calm 16.09 Fair CLR 5.3 -2.5 58% 76.38 0.0
03 22:55 Calm 16.09 Fair CLR 5.2 -2.4 58% 76.38 0.0
03 22:35 Calm 16.09 Fair CLR 5.9 -2.6 55% 76.38 0.0
03 22:15 Calm 16.09 Fair CLR 6.4 -2.5 53% 76.38 0.0
03 21:55 Calm 16.09 Fair CLR 7.2 -3.5 47% 76.38 0.0
03 21:35 W 6 16.09 Fair CLR 7.7 -3.7 45% 76.35 0.0
03 21:15 SW 6 16.09 Fair CLR 8.9 -5 37% 76.35 0.0
03 20:55 SW 6 16.09 Fair CLR 9.7 -6.1 33% 76.33 0.0
03 20:35 SW 7 16.09 Fair CLR 10.2 -6.5 31% 76.33 0.0
03 20:15 SW 9 16.09 Fair CLR 10.7 -6.7 29% 76.3 0.0
03 19:55 SW 13 16.09 Fair CLR 11.1 -6.8 13.4 11.1 28% 76.3 0.0
03 19:35 SW 15 16.09 Fair CLR 11.8 -7 26% 76.3 0.0
03 19:15 SW 17 G 26 16.09 Fair CLR 12.1 -6.3 27% 76.3 0.0
03 18:55 SW 20 16.09 Fair CLR 12.5 -5.9 27% 76.3 0.0
03 18:35 SW 15 G 26 16.09 Fair CLR 12.5 -6.3 27% 76.3 0.0
03 18:15 SW 15 G 28 16.09 Fair CLR 12.7 -6.6 26% 76.33 0.0
03 17:55 W 20 G 30 16.09 Fair CLR 12.8 -6.9 25% 76.33 0.0
03 17:35 W 19 G 28 16.09 Fair CLR 13.1 -6.6 25% 76.33 0.0
03 17:15 SW 19 G 31 16.09 Fair CLR 13.1 -7.6 23% 76.35 0.0
03 16:55 W 22 G 30 16.09 Fair CLR 13.4 -6.8 24% 76.33 0.0
03 16:35 SW 20 G 31 16.09 Fair CLR 13.3 -7 24% 76.35 0.0
03 15:55 SW 22 G 31 16.09 Fair CLR 12.6 -7.2 25% 76.38 0.0
03 15:35 W 15 G 28 16.09 Fair CLR 12.9 -6 27% 76.4 0.0
03 14:55 W 17 G 26 16.09 Fair CLR 12.8 -6.1 26% 76.43 0.0
03 14:35 SW 15 G 26 16.09 Fair CLR 12.2 -6.4 27% 76.45 0.0
03 14:15 SW 15 G 26 16.09 Fair CLR 12 -6.3 28% 76.45 0.0
03 13:55 S 7 G 30 16.09 Fair CLR 11.3 -7.5 11.8 2.9 26% 76.48 0.0
03 13:35 SW 13 G 30 16.09 Fair CLR 11.2 -7.7 26% 76.5 0.0
03 13:15 W 13 G 30 16.09 Fair CLR 10.8 -8.7 25% 76.53 0.0
03 12:55 SW 9 16.09 Fair CLR 9.9 -8.2 27% 9 76.53 0.0
03 12:35 W 19 16.09 Fair CLR 9.5 -7.5 30% 7 76.56 0.0
03 12:15 W 15 G 28 16.09 Fair CLR 8.9 -8.8 28% 7 76.56 0.0
03 11:55 W 11 16.09 Fair CLR 9.2 -8.1 29% 8 76.58 0.0
03 11:35 W 11 G 28 16.09 Fair CLR 8.8 -9.3 27% 7 76.58 0.0
03 11:15 NW 15 16.09 Fair CLR 8 -10.3 26% 6 76.58 0.0
03 10:55 N 19 G 30 16.09 Fair CLR 7 -11 27% 4 76.58 0.0
03 10:35 N 17 16.09 Fair CLR 6.7 -10.5 28% 4 76.58 0.0
03 10:15 W 13 G 28 16.09 Fair CLR 6.4 -9.7 31% 4 76.58 0.0
03 09:55 N 17 G 26 16.09 Fair CLR 5.6 -10.2 31% 3 76.58 0.0
03 09:35 NW 13 16.09 Fair CLR 5.6 -8.7 35% 3 76.58 0.0
03 09:15 NW 13 G 26 16.09 Fair CLR 5 -8.2 38% 2 76.58 0.0
03 08:55 W 13 16.09 Fair CLR 4.5 -7.9 40% 2 76.58 0.0
03 08:35 W 11 16.09 Fair CLR 4.2 -5.5 50% 2 76.58 0.0
03 08:15 W 9 16.09 Fair CLR 3.4 -5.5 53% 1 76.56 0.0
03 07:55 W 7 16.09 Fair CLR 2.8 -4.4 4 0 59% 1 76.53 0.0
03 07:35 SW 7 16.09 Fair CLR 1.7 -4.6 63% -0 76.5 0.0
03 07:15 Calm 16.09 Fair CLR 0.9 -4 70% 76.48 0.0
03 06:55 SW 6 16.09 Fair CLR 0.5 -3.8 73% 76.45 0.0
03 06:35 SW 9 16.09 Fair CLR 0.1 -3.2 79% -3 76.43 0.0
03 06:15 SW 9 16.09 Fair CLR 0 -3.1 80% -3 76.43 0.0
03 05:55 W 11 16.09 Fair CLR 0.8 -3.6 73% -2 76.4 0.0
03 05:35 SW 11 16.09 Fair CLR 0.9 -3.2 74% -2 76.4 0.0
03 05:15 W 17 16.09 Fair CLR 1 -3.6 72% -3 76.38 0.0
03 04:55 W 11 16.09 Fair CLR 1.5 -3.4 70% -1 76.38 0.0
03 04:35 W 11 16.09 Fair CLR 1.8 -3.5 68% -1 76.35 0.0
03 04:15 W 17 G 26 16.09 Partly Cloudy SCT049 2.5 -3.5 65% -1 76.35 0.0
03 03:55 W 13 16.09 Fair CLR 2.1 -3.1 69% -1 76.33 0.0
03 03:35 W 11 16.09 Partly Cloudy SCT046 2.6 -3.5 64% -0 76.33 0.0
03 03:15 SW 9 16.09 Partly Cloudy SCT048 2.5 -3.5 65% 0 76.3 0.0
03 02:55 W 11 16.09 Fair CLR 3.1 -3.6 62% 0 76.3 0.0
03 02:35 NW 9 16.09 Fair CLR 3.3 -3.8 60% 1 76.28 0.0
03 02:15 W 11 16.09 Fair CLR 3.8 -3.9 58% 1 76.28 0.0
03 01:55 W 9 16.09 Fair CLR 3.8 -3.8 7.5 3.8 58% 2 76.3 0.0
03 01:35 W 13 16.09 Fair CLR 4.2 -4 56% 1 76.3 0.0
03 00:55 W 13 16.09 Fair CLR 4.6 -3.7 55% 2 76.28 0.0
03 00:35 W 11 16.09 Fair CLR 4.7 -3.9 54% 2 76.28 0.0
03 00:15 W 7 16.09 Fair CLR 4.7 -3.7 55% 3 76.25 0.0
02 23:55 W 9 16.09 Fair CLR 5.1 -4 52% 3 76.25 0.0
02 23:35 W 11 G 26 16.09 Fair CLR 5.4 -4 51% 3 76.25 0.0
02 23:15 W 11 16.09 Partly Cloudy SCT070 5.4 -4.1 51% 3 76.25 0.0
02 22:55 W 13 16.09 Partly Cloudy SCT070 5.3 -4 51% 3 76.25 0.0
02 22:35 W 9 16.09 Fair CLR 5.4 -4.3 50% 4 76.25 0.0
02 22:15 W 6 16.09 Partly Cloudy SCT060 SCT070 5.5 -4.4 49% 76.25 0.0
02 21:55 W 19 G 28 16.09 Partly Cloudy SCT065 6 -4.5 47% 3 76.23 0.0
02 21:35 W 13 16.09 Fair CLR 6 -4.5 47% 4 76.23 0.0
02 21:15 NW 15 16.09 Fair CLR 6.3 -4.6 46% 4 76.23 0.0
02 20:55 W 11 16.09 Fair CLR 6.5 -4.5 46% 5 76.2 0.0
02 20:35 NW 7 16.09 Fair CLR 6.7 -4.1 46% 6 76.2 0.0
02 20:15 W 9 16.09 Fair CLR 6.9 -4.4 45% 5 76.2 0.0
02 19:55 W 17 16.09 Fair CLR 7.5 -4.7 12.2 7.5 42% 5 76.15 0.0
02 19:35 NW 13 G 28 16.09 Partly Cloudy SCT075 SCT085 8.1 -4.8 40% 6 76.15 0.0
02 19:15 W 19 G 26 16.09 Overcast SCT065 OVC075 8.1 -4.3 42% 5 76.15 0.0
02 18:55 W 20 G 31 16.09 Overcast SCT055 BKN075 OVC085 8.4 -4.5 40% 6 76.15 0.0
02 18:35 NW 15 G 30 16.09 Overcast SCT065 OVC080 8.6 -4.7 39% 6 76.15 0.0
02 18:15 NW 11 G 28 16.09 Overcast OVC070 9 -5.6 35% 8 76.12 0.0
02 17:55 W 19 G 35 16.09 Overcast BKN070 OVC080 10.2 -5 34% 76.1 0.0
02 17:35 W 15 G 31 16.09 Overcast OVC070 10 -4.6 36% 8 76.1 0.0
02 17:15 NW 20 G 33 16.09 Overcast SCT055 OVC080 10.3 -4.7 35% 76.07 0.0
02 16:55 NW 15 G 37 16.09 Overcast SCT055 OVC080 9.9 -4.6 36% 8 76.07 0.0
02 16:35 NW 19 G 26 16.09 Mostly Cloudy SCT060 BKN070 9.7 -5.2 35% 7 76.07 0.0
02 16:15 NW 20 G 33 16.09 Overcast SCT060 OVC070 10.1 -5.2 34% 76.07 0.0
02 15:55 N 30 G 37 16.09 Overcast SCT060 OVC070 10 -5.3 34% 7 76.07 0.0
02 15:35 NW 24 G 37 16.09 Overcast SCT060 OVC070 9.9 -5.3 34% 7 76.1 0.0
02 15:15 NW 17 G 33 16.09 Mostly Cloudy BKN060 10.2 -5.5 33% 76.1 0.0
02 14:55 W 19 G 30 16.09 Mostly Cloudy BKN060 BKN075 11.1 -5.9 30% 76.07 0.0
02 14:35 NW 28 G 35 16.09 Mostly Cloudy BKN060 11.4 -5.3 31% 76.07 0.0
02 14:15 W 11 G 37 16.09 Partly Cloudy SCT060 11.7 -5.7 29% 76.1 0.0
02 13:55 N 15 G 28 16.09 Partly Cloudy SCT060 11.9 -5.3 12.4 5.5 30% 76.1 0.0
02 13:35 W 33 G 41 16.09 Partly Cloudy and Breezy SCT060 11.5 -4.4 33% 76.07 0.0
02 13:15 NW 19 G 31 16.09 Partly Cloudy SCT060 11.1 -5.4 31% 76.12 0.0
02 12:55 NW 13 G 26 16.09 Fair CLR 10.3 -5.6 32% 76.15 0.0
02 12:35 NW 19 G 33 16.09 Fair CLR 10.8 -5.6 31% 76.15 0.0
02 12:15 NW 7 G 31 16.09 Fair CLR 10 -6.5 31% 9 76.15 0.0
02 11:55 NW 17 G 28 16.09 Fair CLR 10.7 -6.7 29% 76.17 0.0
02 11:35 W 7 16.09 Fair CLR 9.5 -6.5 32% 9 76.2 0.0
02 11:15 SW 6 16.09 Fair CLR 9.4 -4 39% 76.2 0.0
02 10:55 Calm 16.09 Fair CLR 8.2 -5.1 39% 76.2 0.0
02 10:35 NW 11 16.09 Fair CLR 7.8 -4.7 41% 6 76.2 0.0
02 10:15 N 11 16.09 Fair CLR 7 -5.7 40% 5 76.2 0.0
02 09:55 NW 13 16.09 Fair CLR 7 -4.7 43% 5 76.2 0.0
02 09:35 Calm 16.09 Fair CLR 6.5 -4.9 44% 76.23 0.0
02 09:15 Calm 16.09 Fair CLR 6.2 -4.8 46% 76.2 0.0
02 08:55 N 6 16.09 Fair CLR 5.9 -4.3 48% 76.23 0.0
02 08:35 NE 11 16.09 Fair CLR 5.6 -4.8 48% 3 76.2 0.0
02 08:15 Calm 16.09 Fair CLR 5.5 -5 47% 76.2 0.0
02 07:55 Calm 16.09 Partly Cloudy SCT055 5.5 -4.9 8.5 4 47% 76.2 0.0
02 07:35 W 6 16.09 Fair CLR 5.1 -4.1 52% 76.2 0.0
02 07:15 Calm 16.09 Fair CLR 5 -3.4 55% 76.17 0.0
02 06:55 Calm 16.09 Partly Cloudy SCT055 4.9 -3.4 55% 76.15 0.0
02 06:35 Calm 16.09 Partly Cloudy SCT055 4.7 -2.1 62% 76.15 0.0
02 06:15 Calm 16.09 Mostly Cloudy BKN055 5.5 -3.2 54% 76.15 0.0
02 05:55 NW 6 16.09 Overcast OVC049 5.6 -3 54% 76.15 0.0
02 05:35 NW 7 16.09 Overcast OVC049 6.1 -3.6 50% 5 76.2 0.0
02 05:15 NW 9 16.09 Overcast OVC049 6.2 -3.7 49% 5 76.2 0.0
02 04:55 W 11 16.09 Overcast OVC047 6.5 -2.8 52% 5 76.2 0.0
02 04:35 W 11 16.09 Overcast OVC047 6.5 -2.1 55% 5 76.2 0.0
02 04:15 W 11 16.09 Overcast SCT025 SCT032 OVC047 6.7 -1.6 56% 5 76.2 0.0
02 03:55 NW 13 16.09 Overcast BKN025 OVC030 7.2 1.2 66% 5 76.2 0.0
02 03:35 NW 6 16.09 Overcast OVC025 7.6 1.6 66% 76.15 0.0
02 03:15 NW 7 16.09 Overcast OVC029 7.7 1.5 65% 7 76.15 0.0
02 02:55 NW 9 16.09 Overcast BKN029 BKN034 OVC040 8 1.1 62% 7 76.15 0.0
02 02:35 NW 6 16.09 Overcast BKN029 OVC042 8.1 1.1 62% 76.15 0.0
02 02:15 N 6 16.09 Overcast OVC029 8.2 1.5 63% 76.2 0.0
02 01:55 N 7 16.09 Overcast BKN029 OVC035 8.5 1.5 13.9 8.5 62% 8 76.2 0.0
02 01:35 N 6 16.09 Overcast BKN033 BKN039 OVC047 8.6 1.8 63% 76.2 0.0
02 01:15 NW 7 16.09 Overcast SCT032 SCT037 OVC047 8.8 1.5 61% 8 76.2 0.0
02 00:55 Calm 16.09 Overcast SCT032 OVC045 9 1.7 61% 76.2 0.0
02 00:35 NW 7 16.09 Overcast BKN040 OVC047 9.2 1.5 59% 8 76.17 0.0
02 00:15 W 9 16.09 Overcast SCT039 OVC044 9.5 1.6 58% 8 76.2 0.0
01 23:55 W 9 16.09 Overcast OVC046 9.5 1.8 59% 8 76.2 0.0
01 23:35 NW 15 16.09 Overcast BKN050 BKN060 OVC070 9.6 2 59% 8 76.15 0.0
01 23:15 NW 11 16.09 Overcast BKN050 OVC070 9.9 2.9 62% 9 76.17 0.0
01 22:55 NW 7 16.09 Overcast SCT034 OVC050 10 3.2 63% 9 76.2 0.0
01 22:35 W 9 16.09 Overcast OVC060 10.5 3 60% 76.15 0.0
01 22:15 NW 15 16.09 Mostly Cloudy BKN060 11 2.5 56% 76.15 0.0
01 21:55 NW 15 G 28 16.09 Mostly Cloudy BKN060 11.7 1.9 51% 76.1 0.0
01 21:35 NW 13 G 28 16.09 Mostly Cloudy BKN065 BKN080 13 0.3 42% 76.05 0.0
01 21:15 W 17 16.09 Overcast BKN065 OVC080 13.5 -0.7 38% 76.02 0.0
01 20:55 W 11 16.09 Overcast OVC065 13.5 -0.9 37% 76.02 0.0
01 20:35 W 11 16.09 Overcast OVC065 13.5 -0.7 38% 75.97 0.0
01 20:15 W 11 16.09 Overcast OVC075 13.5 -1 37% 75.95 0.0
01 19:55 W 15 16.09 Mostly Cloudy BKN075 14 -2 17.6 14 33% 75.95 0.0
01 19:35 SW 13 16.09 Partly Cloudy SCT075 14.1 -2 33% 75.92 0.0
01 19:15 SW 17 G 26 16.09 Partly Cloudy SCT075 15 -2.7 30% 75.92 0.0
01 18:55 SW 15 16.09 Fair CLR 15.2 -3.2 28% 75.92 0.0
01 18:35 W 26 G 31 16.09 Fair CLR 15.5 -3.3 27% 75.92 0.0
01 18:15 SW 17 G 31 16.09 Fair CLR 16 -4.5 24% 75.92 0.0
01 17:55 SW 19 G 37 16.09 Fair CLR 16.6 -4.7 23% 75.92 0.0
01 17:35 W 26 16.09 Fair CLR 16.6 -4.4 24% 75.95 0.0
01 17:15 SW 22 G 35 16.09 Fair CLR 17 -4 24% 75.92 0.0
01 16:55 SW 26 G 37 16.09 Fair CLR 17.2 -3.8 24% 75.95 0.0
01 16:35 W 22 G 37 16.09 Fair CLR 17 -3.9 24% 75.95 0.0
01 16:15 SW 24 G 35 16.09 Fair CLR 17.1 -4.6 22% 75.97 0.0
01 15:55 W 20 G 43 16.09 Fair CLR 17.2 -2.9 25% 75.97 0.0
01 15:35 SW 17 G 35 16.09 Fair CLR 16.9 -2.7 26% 76 0.0
01 15:15 W 20 G 33 16.09 Fair CLR 17 -3.2 25% 76 0.0
01 14:55 SW 26 G 44 16.09 Fair CLR 16.9 -5.9 21% 76.02 0.0
01 14:35 SW 30 G 43 16.09 Fair CLR 17.1 -3.2 25% 76.02 0.0
01 13:55 W 22 G 39 16.09 Fair CLR 16.7 -1.4 16.8 4.1 29% 76.05 0.0
01 13:35 SW 17 G 31 16.09 Fair CLR 16.1 -1 31% 76.07 0.0
01 13:15 W 15 16.09 Fair CLR 15.6 -1.7 31% 76.07 0.0
01 12:55 W 22 G 30 16.09 Fair CLR 15.8 -2.6 28% 76.1 0.0
01 12:35 NW 7 16.09 Fair CLR 14.8 -4.5 26% 76.12 0.0
01 12:15 Calm 16.09 Fair CLR 14.8 -0.1 36% 76.12 0.0
01 11:55 Calm 16.09 Fair CLR 14.1 -0.3 37% 76.15 0.0
01 11:35 Calm 16.09 Fair CLR 12.8 -1.5 37% 76.15 0.0
01 11:15 E 9 16.09 Fair CLR 12.4 -0.6 41% 76.17 0.0
01 10:55 E 9 16.09 Partly Cloudy SCT110 12.3 0.5 45% 76.2 0.0
01 10:35 NE 9 16.09 Overcast OVC120 10.9 -0.6 45% 76.2 0.0
01 10:15 E 9 16.09 Overcast OVC120 10.3 0.6 51% 76.2 0.0
01 09:55 E 9 16.09 Overcast OVC120 9.2 0.4 54% 8 76.2 0.0
01 09:35 NE 9 16.09 Mostly Cloudy BKN120 8.6 1.3 60% 7 76.23 0.0
01 09:15 NE 11 16.09 Partly Cloudy SCT120 7.5 1.1 64% 6 76.23 0.0
01 08:55 E 11 16.09 Fair CLR 6.6 1.2 69% 5 76.23 0.0
01 08:35 NE 11 16.09 Fair CLR 5.6 1.1 73% 3 76.23 0.0
01 08:15 NE 9 16.09 Fair CLR 4.8 1.2 78% 3 76.23 0.0
01 07:55 NE 6 16.09 Fair CLR 3.8 1.5 3.8 1.7 85% 76.23 0.0
01 07:35 Calm 16.09 Fair CLR 2.3 1.1 92% 76.23 0.0
01 07:15 Calm 16.09 Fair CLR 2 0.7 91% 76.23 0.0
01 06:55 Calm 16.09 Fair CLR 1.8 0.6 92% 76.23 0.0
01 06:35 Calm 16.09 Fair CLR 2.2 1 92% 76.2 0.0
01 06:15 Calm 16.09 Fair CLR 2.2 1.1 93% 76.2 0.0
01 05:55 Calm 16.09 Fair CLR 2.7 1.5 92% 76.17 0.0
01 05:35 Calm 16.09 Fair CLR 3 1.7 91% 76.17 0.0
01 05:15 Calm 16.09 Fair CLR 3.3 1.3 87% 76.15 0.0
01 04:55 Calm 16.09 Fair CLR 3.6 1.1 84% 76.2 0.0
01 04:35 Calm 16.09 Fair CLR 3.7 1 83% 76.2 0.0
Date Time (edt) Wind (kph) Vis. (km) Weather Sky Cond. Air Dwpt Max. Min. Relative Humidity Wind Chill (°C) Heat Index (°C) altimeter (cm) sea level (mb) 1 hr 3 hr 6 hr
6 hour
Temperature (ºC) Pressure Precipitation (cm)